sensor_id;sensor_type;location;lat;lon;timestamp;pressure;altitude;pressure_sealevel;temperature;humidity
6218;BME280;3142;48.206;11.550;2023-03-04T00:01:43;96095.66;;;5.28;71.40
6218;BME280;3142;48.206;11.550;2023-03-04T00:04:10;96107.34;;;5.32;70.98
6218;BME280;3142;48.206;11.550;2023-03-04T00:06:36;96107.00;;;5.27;71.09
6218;BME280;3142;48.206;11.550;2023-03-04T00:09:04;96104.56;;;5.26;71.07
6218;BME280;3142;48.206;11.550;2023-03-04T00:11:31;96104.41;;;5.27;71.11
6218;BME280;3142;48.206;11.550;2023-03-04T00:13:58;96100.03;;;5.28;71.12
6218;BME280;3142;48.206;11.550;2023-03-04T00:16:24;96105.53;;;5.25;71.07
6218;BME280;3142;48.206;11.550;2023-03-04T00:18:51;96106.84;;;5.21;71.60
6218;BME280;3142;48.206;11.550;2023-03-04T00:21:18;96110.19;;;5.13;70.98
6218;BME280;3142;48.206;11.550;2023-03-04T00:23:44;96114.06;;;5.09;71.48
6218;BME280;3142;48.206;11.550;2023-03-04T00:26:12;96105.44;;;5.00;71.10
6218;BME280;3142;48.206;11.550;2023-03-04T00:28:38;96106.25;;;5.01;71.60
6218;BME280;3142;48.206;11.550;2023-03-04T00:31:05;96111.53;;;4.91;71.72
6218;BME280;3142;48.206;11.550;2023-03-04T00:33:32;96120.59;;;4.87;72.35
6218;BME280;3142;48.206;11.550;2023-03-04T00:35:58;96117.69;;;4.90;71.94
6218;BME280;3142;48.206;11.550;2023-03-04T00:38:25;96113.16;;;4.92;72.05
6218;BME280;3142;48.206;11.550;2023-03-04T00:40:51;96116.22;;;4.88;71.87
6218;BME280;3142;48.206;11.550;2023-03-04T00:43:19;96118.47;;;4.83;71.80
6218;BME280;3142;48.206;11.550;2023-03-04T00:45:46;96115.06;;;4.82;72.08
6218;BME280;3142;48.206;11.550;2023-03-04T00:48:12;96121.22;;;4.81;72.21
6218;BME280;3142;48.206;11.550;2023-03-04T00:50:40;96125.06;;;4.77;72.06
6218;BME280;3142;48.206;11.550;2023-03-04T00:53:07;96122.63;;;4.75;72.04
6218;BME280;3142;48.206;11.550;2023-03-04T00:55:33;96117.59;;;4.74;72.37
6218;BME280;3142;48.206;11.550;2023-03-04T00:57:59;96119.06;;;4.76;72.09
6218;BME280;3142;48.206;11.550;2023-03-04T01:00:27;96108.19;;;4.73;72.20
6218;BME280;3142;48.206;11.550;2023-03-04T01:02:54;96113.38;;;4.73;72.03
6218;BME280;3142;48.206;11.550;2023-03-04T01:05:20;96110.00;;;4.72;72.66
6218;BME280;3142;48.206;11.550;2023-03-04T01:07:47;96099.63;;;4.72;72.27
6218;BME280;3142;48.206;11.550;2023-03-04T01:10:14;96095.88;;;4.67;72.24
6218;BME280;3142;48.206;11.550;2023-03-04T01:12:41;96096.53;;;4.69;72.49
6218;BME280;3142;48.206;11.550;2023-03-04T01:15:08;96101.56;;;4.70;71.92
6218;BME280;3142;48.206;11.550;2023-03-04T01:17:37;96094.22;;;4.66;72.03
6218;BME280;3142;48.206;11.550;2023-03-04T01:20:05;96099.88;;;4.61;72.44
6218;BME280;3142;48.206;11.550;2023-03-04T01:22:32;96093.72;;;4.62;72.66
6218;BME280;3142;48.206;11.550;2023-03-04T01:24:58;96088.22;;;4.65;71.83
6218;BME280;3142;48.206;11.550;2023-03-04T01:27:25;96089.50;;;4.61;72.10
6218;BME280;3142;48.206;11.550;2023-03-04T01:29:51;96082.53;;;4.62;71.82
6218;BME280;3142;48.206;11.550;2023-03-04T01:32:17;96084.94;;;4.55;72.44
6218;BME280;3142;48.206;11.550;2023-03-04T01:34:45;96088.59;;;4.44;72.26
6218;BME280;3142;48.206;11.550;2023-03-04T01:37:12;96074.84;;;4.44;72.42
6218;BME280;3142;48.206;11.550;2023-03-04T01:39:38;96081.94;;;4.42;72.31
6218;BME280;3142;48.206;11.550;2023-03-04T01:42:08;96079.00;;;4.37;72.24
6218;BME280;3142;48.206;11.550;2023-03-04T01:44:37;96069.75;;;4.34;72.15
6218;BME280;3142;48.206;11.550;2023-03-04T01:47:04;96076.06;;;4.32;72.33
6218;BME280;3142;48.206;11.550;2023-03-04T01:49:30;96075.25;;;4.31;73.42
6218;BME280;3142;48.206;11.550;2023-03-04T01:51:58;96072.31;;;4.26;72.88
6218;BME280;3142;48.206;11.550;2023-03-04T01:54:24;96070.81;;;4.24;72.75
6218;BME280;3142;48.206;11.550;2023-03-04T01:56:51;96068.84;;;4.18;72.82
6218;BME280;3142;48.206;11.550;2023-03-04T01:59:20;96068.00;;;4.17;72.78
6218;BME280;3142;48.206;11.550;2023-03-04T02:01:48;96058.78;;;4.14;73.75
6218;BME280;3142;48.206;11.550;2023-03-04T02:04:17;96056.50;;;4.11;73.44
6218;BME280;3142;48.206;11.550;2023-03-04T02:06:45;96060.56;;;4.14;73.49
6218;BME280;3142;48.206;11.550;2023-03-04T02:09:14;96054.72;;;4.12;72.88
6218;BME280;3142;48.206;11.550;2023-03-04T02:11:41;96052.88;;;4.04;73.16
6218;BME280;3142;48.206;11.550;2023-03-04T02:14:09;96046.06;;;4.03;73.91
6218;BME280;3142;48.206;11.550;2023-03-04T02:16:36;96055.63;;;4.03;73.64
6218;BME280;3142;48.206;11.550;2023-03-04T02:19:04;96043.34;;;4.05;73.45
6218;BME280;3142;48.206;11.550;2023-03-04T02:21:33;96044.81;;;4.07;73.31
6218;BME280;3142;48.206;11.550;2023-03-04T02:24:05;96045.63;;;4.08;73.94
6218;BME280;3142;48.206;11.550;2023-03-04T02:26:37;96037.69;;;4.09;72.82
6218;BME280;3142;48.206;11.550;2023-03-04T02:29:05;96041.88;;;4.02;72.97
6218;BME280;3142;48.206;11.550;2023-03-04T02:31:34;96037.97;;;3.98;73.08
6218;BME280;3142;48.206;11.550;2023-03-04T02:34:04;96037.81;;;4.00;73.41
6218;BME280;3142;48.206;11.550;2023-03-04T02:36:32;96038.47;;;4.02;73.14
6218;BME280;3142;48.206;11.550;2023-03-04T02:39:02;96036.19;;;3.99;73.93
6218;BME280;3142;48.206;11.550;2023-03-04T02:41:30;96040.16;;;3.93;73.79
6218;BME280;3142;48.206;11.550;2023-03-04T02:43:58;96039.59;;;3.99;73.24
6218;BME280;3142;48.206;11.550;2023-03-04T02:46:24;96046.38;;;4.00;73.55
6218;BME280;3142;48.206;11.550;2023-03-04T02:48:51;96042.81;;;4.01;73.55
6218;BME280;3142;48.206;11.550;2023-03-04T02:51:17;96041.22;;;4.00;73.74
6218;BME280;3142;48.206;11.550;2023-03-04T02:53:44;96043.78;;;4.00;73.50
6218;BME280;3142;48.206;11.550;2023-03-04T02:56:10;96043.34;;;4.05;72.87
6218;BME280;3142;48.206;11.550;2023-03-04T02:58:37;96047.19;;;4.01;73.39
6218;BME280;3142;48.206;11.550;2023-03-04T03:01:07;96042.31;;;3.98;73.62
6218;BME280;3142;48.206;11.550;2023-03-04T03:03:34;96044.75;;;3.99;73.41
6218;BME280;3142;48.206;11.550;2023-03-04T03:06:00;96046.81;;;3.96;73.13
6218;BME280;3142;48.206;11.550;2023-03-04T03:08:27;96047.28;;;3.91;72.84
6218;BME280;3142;48.206;11.550;2023-03-04T03:10:53;96046.63;;;3.89;73.08
6218;BME280;3142;48.206;11.550;2023-03-04T03:13:20;96043.13;;;3.80;73.33
6218;BME280;3142;48.206;11.550;2023-03-04T03:15:46;96048.31;;;3.80;73.90
6218;BME280;3142;48.206;11.550;2023-03-04T03:18:14;96042.78;;;3.75;73.83
6218;BME280;3142;48.206;11.550;2023-03-04T03:20:40;96046.84;;;3.78;72.82
6218;BME280;3142;48.206;11.550;2023-03-04T03:23:07;96058.97;;;3.77;73.46
6218;BME280;3142;48.206;11.550;2023-03-04T03:25:33;96049.28;;;3.79;73.18
6218;BME280;3142;48.206;11.550;2023-03-04T03:28:00;96049.94;;;3.81;72.62
6218;BME280;3142;48.206;11.550;2023-03-04T03:30:27;96045.38;;;3.75;72.72
6218;BME280;3142;48.206;11.550;2023-03-04T03:32:53;96051.88;;;3.79;73.23
6218;BME280;3142;48.206;11.550;2023-03-04T03:35:21;96043.28;;;3.79;73.05
6218;BME280;3142;48.206;11.550;2023-03-04T03:37:48;96046.84;;;3.78;72.86
6218;BME280;3142;48.206;11.550;2023-03-04T03:40:14;96041.34;;;3.81;73.15
6218;BME280;3142;48.206;11.550;2023-03-04T03:42:41;96048.16;;;3.82;72.98
6218;BME280;3142;48.206;11.550;2023-03-04T03:45:08;96042.31;;;3.80;72.42
6218;BME280;3142;48.206;11.550;2023-03-04T03:47:35;96042.63;;;3.77;72.16
6218;BME280;3142;48.206;11.550;2023-03-04T03:50:02;96036.13;;;3.73;72.97
6218;BME280;3142;48.206;11.550;2023-03-04T03:52:30;96041.59;;;3.70;72.44
6218;BME280;3142;48.206;11.550;2023-03-04T03:54:56;96040.09;;;3.67;72.60
6218;BME280;3142;48.206;11.550;2023-03-04T03:57:26;96034.59;;;3.62;72.97
6218;BME280;3142;48.206;11.550;2023-03-04T03:59:52;96036.34;;;3.62;73.01
6218;BME280;3142;48.206;11.550;2023-03-04T04:02:19;96035.16;;;3.56;73.03
6218;BME280;3142;48.206;11.550;2023-03-04T04:04:46;96038.03;;;3.53;73.17
6218;BME280;3142;48.206;11.550;2023-03-04T04:07:12;96036.94;;;3.55;73.44
6218;BME280;3142;48.206;11.550;2023-03-04T04:09:40;96038.84;;;3.53;72.94
6218;BME280;3142;48.206;11.550;2023-03-04T04:12:07;96032.72;;;3.54;72.58
6218;BME280;3142;48.206;11.550;2023-03-04T04:14:34;96035.59;;;3.51;72.93
6218;BME280;3142;48.206;11.550;2023-03-04T04:17:00;96038.72;;;3.55;73.54
6218;BME280;3142;48.206;11.550;2023-03-04T04:19:27;96036.94;;;3.55;73.13
6218;BME280;3142;48.206;11.550;2023-03-04T04:21:53;96030.81;;;3.56;73.81
6218;BME280;3142;48.206;11.550;2023-03-04T04:24:19;96042.25;;;3.54;72.72
6218;BME280;3142;48.206;11.550;2023-03-04T04:26:47;96046.91;;;3.50;73.37
6218;BME280;3142;48.206;11.550;2023-03-04T04:29:14;96040.13;;;3.49;72.41
6218;BME280;3142;48.206;11.550;2023-03-04T04:31:41;96046.41;;;3.47;72.90
6218;BME280;3142;48.206;11.550;2023-03-04T04:34:08;96037.31;;;3.43;73.18
6218;BME280;3142;48.206;11.550;2023-03-04T04:36:34;96039.91;;;3.43;72.33
6218;BME280;3142;48.206;11.550;2023-03-04T04:39:01;96032.72;;;3.37;72.83
6218;BME280;3142;48.206;11.550;2023-03-04T04:41:30;96034.50;;;3.36;72.71
6218;BME280;3142;48.206;11.550;2023-03-04T04:43:58;96034.66;;;3.35;72.86
6218;BME280;3142;48.206;11.550;2023-03-04T04:46:25;96027.69;;;3.35;72.71
6218;BME280;3142;48.206;11.550;2023-03-04T04:48:51;96032.06;;;3.35;72.71
6218;BME280;3142;48.206;11.550;2023-03-04T04:51:18;96026.06;;;3.34;72.54
6218;BME280;3142;48.206;11.550;2023-03-04T04:53:44;96026.53;;;3.30;72.92
6218;BME280;3142;48.206;11.550;2023-03-04T04:56:13;96037.00;;;3.28;73.40
6218;BME280;3142;48.206;11.550;2023-03-04T04:58:39;96038.41;;;3.22;72.96
6218;BME280;3142;48.206;11.550;2023-03-04T05:01:08;96036.94;;;3.20;72.95
6218;BME280;3142;48.206;11.550;2023-03-04T05:03:36;96035.31;;;3.19;73.20
6218;BME280;3142;48.206;11.550;2023-03-04T05:06:04;96038.69;;;3.19;72.66
6218;BME280;3142;48.206;11.550;2023-03-04T05:08:32;96041.69;;;3.15;73.22
6218;BME280;3142;48.206;11.550;2023-03-04T05:10:59;96044.06;;;3.08;73.21
6218;BME280;3142;48.206;11.550;2023-03-04T05:13:26;96049.94;;;3.01;73.67
6218;BME280;3142;48.206;11.550;2023-03-04T05:15:53;96048.31;;;3.00;73.71
6218;BME280;3142;48.206;11.550;2023-03-04T05:18:22;96048.31;;;3.00;73.27
6218;BME280;3142;48.206;11.550;2023-03-04T05:20:50;96049.13;;;3.00;73.72
6218;BME280;3142;48.206;11.550;2023-03-04T05:23:17;96048.72;;;3.05;73.93
6218;BME280;3142;48.206;11.550;2023-03-04T05:25:43;96052.13;;;3.05;73.45
6218;BME280;3142;48.206;11.550;2023-03-04T05:28:10;96040.41;;;3.01;73.68
6218;BME280;3142;48.206;11.550;2023-03-04T05:30:37;96047.78;;;2.96;73.76
6218;BME280;3142;48.206;11.550;2023-03-04T05:33:04;96039.59;;;3.01;73.80
6218;BME280;3142;48.206;11.550;2023-03-04T05:35:34;96041.94;;;3.04;72.85
6218;BME280;3142;48.206;11.550;2023-03-04T05:38:01;96040.72;;;2.98;73.64
6218;BME280;3142;48.206;11.550;2023-03-04T05:40:27;96047.00;;;2.95;73.71
6218;BME280;3142;48.206;11.550;2023-03-04T05:42:53;96047.09;;;3.04;73.48
6218;BME280;3142;48.206;11.550;2023-03-04T05:45:20;96051.31;;;3.05;72.97
6218;BME280;3142;48.206;11.550;2023-03-04T05:47:47;96051.72;;;3.00;72.73
6218;BME280;3142;48.206;11.550;2023-03-04T05:50:14;96049.13;;;3.00;73.47
6218;BME280;3142;48.206;11.550;2023-03-04T05:52:42;96052.41;;;3.02;73.39
6218;BME280;3142;48.206;11.550;2023-03-04T05:55:09;96053.34;;;3.01;72.72
6218;BME280;3142;48.206;11.550;2023-03-04T05:57:35;96060.97;;;3.03;72.97
6218;BME280;3142;48.206;11.550;2023-03-04T06:00:03;96059.19;;;3.03;72.43
6218;BME280;3142;48.206;11.550;2023-03-04T06:02:31;96057.19;;;2.97;72.55
6218;BME280;3142;48.206;11.550;2023-03-04T06:04:58;96056.66;;;2.93;72.84
6218;BME280;3142;48.206;11.550;2023-03-04T06:07:24;96062.78;;;2.92;72.82
6218;BME280;3142;48.206;11.550;2023-03-04T06:09:52;96061.69;;;2.95;72.81
6218;BME280;3142;48.206;11.550;2023-03-04T06:12:18;96064.25;;;2.95;73.19
6218;BME280;3142;48.206;11.550;2023-03-04T06:14:45;96063.44;;;2.94;73.02
6218;BME280;3142;48.206;11.550;2023-03-04T06:17:11;96068.91;;;2.91;72.97
6218;BME280;3142;48.206;11.550;2023-03-04T06:19:38;96068.31;;;2.97;72.77
6218;BME280;3142;48.206;11.550;2023-03-04T06:22:06;96070.50;;;3.02;72.80
6218;BME280;3142;48.206;11.550;2023-03-04T06:24:32;96065.69;;;3.07;72.77
6218;BME280;3142;48.206;11.550;2023-03-04T06:27:00;96070.00;;;3.16;72.54
6218;BME280;3142;48.206;11.550;2023-03-04T06:29:27;96070.75;;;3.26;71.85
6218;BME280;3142;48.206;11.550;2023-03-04T06:31:53;96076.84;;;3.35;71.39
6218;BME280;3142;48.206;11.550;2023-03-04T06:34:20;96072.97;;;3.39;71.58
6218;BME280;3142;48.206;11.550;2023-03-04T06:36:46;96081.00;;;3.46;71.73
6218;BME280;3142;48.206;11.550;2023-03-04T06:39:13;96083.94;;;3.51;70.58
6218;BME280;3142;48.206;11.550;2023-03-04T06:41:40;96085.50;;;3.44;71.23
6218;BME280;3142;48.206;11.550;2023-03-04T06:44:07;96088.59;;;3.47;71.39
6218;BME280;3142;48.206;11.550;2023-03-04T06:46:34;96087.13;;;3.63;70.82
6218;BME280;3142;48.206;11.550;2023-03-04T06:49:01;96088.47;;;3.84;70.67
6218;BME280;3142;48.206;11.550;2023-03-04T06:51:28;96089.63;;;4.08;69.32
6218;BME280;3142;48.206;11.550;2023-03-04T06:53:54;96089.66;;;4.34;68.82
6218;BME280;3142;48.206;11.550;2023-03-04T06:56:21;96089.91;;;4.49;68.35
6218;BME280;3142;48.206;11.550;2023-03-04T06:58:47;96090.53;;;4.68;67.58
6218;BME280;3142;48.206;11.550;2023-03-04T07:01:17;96093.69;;;4.80;66.98
6218;BME280;3142;48.206;11.550;2023-03-04T07:03:44;96089.53;;;4.95;66.98
6218;BME280;3142;48.206;11.550;2023-03-04T07:06:13;96088.19;;;5.25;65.77
6218;BME280;3142;48.206;11.550;2023-03-04T07:08:39;96088.94;;;5.52;65.28
6218;BME280;3142;48.206;11.550;2023-03-04T07:11:06;96084.41;;;5.70;64.38
6218;BME280;3142;48.206;11.550;2023-03-04T07:13:33;96085.59;;;6.00;64.28
6218;BME280;3142;48.206;11.550;2023-03-04T07:16:02;96091.47;;;6.18;63.14
6218;BME280;3142;48.206;11.550;2023-03-04T07:18:30;96087.88;;;6.36;62.57
6218;BME280;3142;48.206;11.550;2023-03-04T07:20:57;96093.22;;;6.42;62.43
6218;BME280;3142;48.206;11.550;2023-03-04T07:23:23;96089.66;;;6.51;62.27
6218;BME280;3142;48.206;11.550;2023-03-04T07:25:50;96094.50;;;6.54;62.15
6218;BME280;3142;48.206;11.550;2023-03-04T07:28:17;96099.38;;;6.66;61.50
6218;BME280;3142;48.206;11.550;2023-03-04T07:30:43;96103.56;;;6.83;60.82
6218;BME280;3142;48.206;11.550;2023-03-04T07:33:10;96100.28;;;6.97;60.29
6218;BME280;3142;48.206;11.550;2023-03-04T07:35:38;96103.31;;;7.17;60.21
6218;BME280;3142;48.206;11.550;2023-03-04T07:38:04;96102.78;;;7.22;59.04
6218;BME280;3142;48.206;11.550;2023-03-04T07:40:30;96107.34;;;7.28;59.14
6218;BME280;3142;48.206;11.550;2023-03-04T07:42:57;96110.13;;;7.18;58.46
6218;BME280;3142;48.206;11.550;2023-03-04T07:45:23;96115.69;;;7.07;59.52
6218;BME280;3142;48.206;11.550;2023-03-04T07:47:50;96118.31;;;6.99;59.95
6218;BME280;3142;48.206;11.550;2023-03-04T07:50:17;96126.44;;;6.96;59.38
6218;BME280;3142;48.206;11.550;2023-03-04T07:52:47;96133.78;;;6.92;59.49
6218;BME280;3142;48.206;11.550;2023-03-04T07:55:15;96131.00;;;7.02;59.64
6218;BME280;3142;48.206;11.550;2023-03-04T07:57:43;96130.91;;;7.26;59.62
6218;BME280;3142;48.206;11.550;2023-03-04T08:00:11;96135.56;;;7.47;58.65
6218;BME280;3142;48.206;11.550;2023-03-04T08:02:38;96141.19;;;7.59;58.33
6218;BME280;3142;48.206;11.550;2023-03-04T08:05:05;96137.97;;;7.57;58.30
6218;BME280;3142;48.206;11.550;2023-03-04T08:07:32;96138.72;;;7.65;58.62
6218;BME280;3142;48.206;11.550;2023-03-04T08:10:00;96137.84;;;7.81;57.39
6218;BME280;3142;48.206;11.550;2023-03-04T08:12:26;96133.78;;;8.01;57.30
6218;BME280;3142;48.206;11.550;2023-03-04T08:14:53;96131.59;;;8.13;55.78
6218;BME280;3142;48.206;11.550;2023-03-04T08:17:20;96134.72;;;8.31;55.46
6218;BME280;3142;48.206;11.550;2023-03-04T08:19:46;96130.31;;;8.32;56.58
6218;BME280;3142;48.206;11.550;2023-03-04T08:22:13;96136.53;;;8.54;55.89
6218;BME280;3142;48.206;11.550;2023-03-04T08:24:39;96131.00;;;8.72;54.15
6218;BME280;3142;48.206;11.550;2023-03-04T08:27:07;96132.16;;;8.69;55.13
6218;BME280;3142;48.206;11.550;2023-03-04T08:29:34;96132.44;;;8.89;54.40
6218;BME280;3142;48.206;11.550;2023-03-04T08:32:00;96135.16;;;8.96;54.65
6218;BME280;3142;48.206;11.550;2023-03-04T08:34:27;96134.81;;;9.13;53.00
6218;BME280;3142;48.206;11.550;2023-03-04T08:36:54;96139.84;;;9.30;53.47
6218;BME280;3142;48.206;11.550;2023-03-04T08:39:21;96132.47;;;9.48;52.77
6218;BME280;3142;48.206;11.550;2023-03-04T08:41:48;96133.13;;;9.71;52.55
6218;BME280;3142;48.206;11.550;2023-03-04T08:44:15;96130.56;;;9.93;51.96
6218;BME280;3142;48.206;11.550;2023-03-04T08:46:42;96123.59;;;10.00;50.74
6218;BME280;3142;48.206;11.550;2023-03-04T08:49:10;96127.09;;;10.07;51.01
6218;BME280;3142;48.206;11.550;2023-03-04T08:51:36;96135.44;;;10.32;50.14
6218;BME280;3142;48.206;11.550;2023-03-04T08:54:03;96127.25;;;10.63;49.68
6218;BME280;3142;48.206;11.550;2023-03-04T08:56:30;96122.53;;;10.80;49.46
6218;BME280;3142;48.206;11.550;2023-03-04T08:58:57;96121.16;;;10.84;49.87
6218;BME280;3142;48.206;11.550;2023-03-04T09:01:25;96130.38;;;11.08;48.89
6218;BME280;3142;48.206;11.550;2023-03-04T09:03:52;96110.50;;;11.20;48.52
6218;BME280;3142;48.206;11.550;2023-03-04T09:06:18;96120.06;;;11.34;48.29
6218;BME280;3142;48.206;11.550;2023-03-04T09:08:45;96116.69;;;11.47;47.99
6218;BME280;3142;48.206;11.550;2023-03-04T09:11:12;96111.09;;;11.56;47.32
6218;BME280;3142;48.206;11.550;2023-03-04T09:13:38;96112.78;;;11.77;47.34
6218;BME280;3142;48.206;11.550;2023-03-04T09:16:08;96110.72;;;12.21;46.64
6218;BME280;3142;48.206;11.550;2023-03-04T09:18:37;96109.72;;;12.41;45.53
6218;BME280;3142;48.206;11.550;2023-03-04T09:21:04;96112.16;;;12.56;46.17
6218;BME280;3142;48.206;11.550;2023-03-04T09:23:32;96114.16;;;12.41;44.36
6218;BME280;3142;48.206;11.550;2023-03-04T09:25:58;96118.81;;;12.39;45.15
6218;BME280;3142;48.206;11.550;2023-03-04T09:28:25;96119.81;;;12.44;44.71
6218;BME280;3142;48.206;11.550;2023-03-04T09:30:51;96111.72;;;12.46;44.34
6218;BME280;3142;48.206;11.550;2023-03-04T09:33:18;96119.59;;;12.46;44.04
6218;BME280;3142;48.206;11.550;2023-03-04T09:35:45;96122.44;;;12.58;44.91
6218;BME280;3142;48.206;11.550;2023-03-04T09:38:13;96114.34;;;12.59;44.41
6218;BME280;3142;48.206;11.550;2023-03-04T09:40:42;96118.59;;;12.60;44.36
6218;BME280;3142;48.206;11.550;2023-03-04T09:43:16;96111.75;;;12.92;43.47
6218;BME280;3142;48.206;11.550;2023-03-04T09:45:47;96110.13;;;12.91;44.01
6218;BME280;3142;48.206;11.550;2023-03-04T09:48:16;96112.91;;;13.29;42.25
6218;BME280;3142;48.206;11.550;2023-03-04T09:50:52;96108.34;;;13.63;41.65
6218;BME280;3142;48.206;11.550;2023-03-04T09:53:26;96103.25;;;13.75;41.54
6218;BME280;3142;48.206;11.550;2023-03-04T09:55:54;96106.84;;;13.80;40.51
6218;BME280;3142;48.206;11.550;2023-03-04T09:58:28;96102.03;;;13.77;41.52
6218;BME280;3142;48.206;11.550;2023-03-04T10:01:07;96096.53;;;13.85;40.66
6218;BME280;3142;48.206;11.550;2023-03-04T10:03:41;96095.28;;;13.88;40.18
6218;BME280;3142;48.206;11.550;2023-03-04T10:06:16;96095.84;;;13.97;40.58
6218;BME280;3142;48.206;11.550;2023-03-04T10:08:49;96093.19;;;14.03;40.16
6218;BME280;3142;48.206;11.550;2023-03-04T10:11:22;96093.19;;;14.03;40.49
6218;BME280;3142;48.206;11.550;2023-03-04T10:13:54;96093.31;;;14.15;40.48
6218;BME280;3142;48.206;11.550;2023-03-04T10:16:25;96089.28;;;14.12;39.88
6218;BME280;3142;48.206;11.550;2023-03-04T10:18:57;96076.59;;;14.03;40.40
6218;BME280;3142;48.206;11.550;2023-03-04T10:21:33;96088.34;;;14.00;39.29
6218;BME280;3142;48.206;11.550;2023-03-04T10:24:08;96075.34;;;14.05;39.28
6218;BME280;3142;48.206;11.550;2023-03-04T10:26:36;96081.81;;;14.09;40.06
6218;BME280;3142;48.206;11.550;2023-03-04T10:29:03;96074.25;;;13.88;39.32
6218;BME280;3142;48.206;11.550;2023-03-04T10:31:33;96078.38;;;14.09;39.28
6218;BME280;3142;48.206;11.550;2023-03-04T10:34:01;96068.16;;;14.26;40.33
6218;BME280;3142;48.206;11.550;2023-03-04T10:36:46;96074.94;;;14.40;39.89
6218;BME280;3142;48.206;11.550;2023-03-04T10:39:18;96072.28;;;14.46;39.62
6218;BME280;3142;48.206;11.550;2023-03-04T10:41:53;96067.34;;;14.57;39.44
6218;BME280;3142;48.206;11.550;2023-03-04T10:44:20;96066.63;;;14.68;39.79
6218;BME280;3142;48.206;11.550;2023-03-04T10:46:47;96064.25;;;14.85;40.00
6218;BME280;3142;48.206;11.550;2023-03-04T10:49:16;96069.31;;;14.86;39.40
6218;BME280;3142;48.206;11.550;2023-03-04T10:51:46;96052.34;;;14.57;39.21
6218;BME280;3142;48.206;11.550;2023-03-04T10:54:22;96069.06;;;14.38;40.05
6218;BME280;3142;48.206;11.550;2023-03-04T10:56:56;96064.06;;;14.30;39.52
6218;BME280;3142;48.206;11.550;2023-03-04T10:59:34;96057.88;;;14.17;40.89
6218;BME280;3142;48.206;11.550;2023-03-04T11:02:14;96053.91;;;14.33;40.22
6218;BME280;3142;48.206;11.550;2023-03-04T11:04:42;96057.03;;;14.55;39.79
6218;BME280;3142;48.206;11.550;2023-03-04T11:07:10;96048.09;;;14.81;39.79
6218;BME280;3142;48.206;11.550;2023-03-04T11:09:37;96050.88;;;15.04;39.11
6218;BME280;3142;48.206;11.550;2023-03-04T11:12:09;96046.56;;;15.10;38.13
6218;BME280;3142;48.206;11.550;2023-03-04T11:14:38;96047.00;;;15.25;38.79
6218;BME280;3142;48.206;11.550;2023-03-04T11:17:17;96047.66;;;15.21;38.49
6218;BME280;3142;48.206;11.550;2023-03-04T11:19:47;96044.94;;;15.46;38.23
6218;BME280;3142;48.206;11.550;2023-03-04T11:22:17;96042.56;;;15.56;38.30
6218;BME280;3142;48.206;11.550;2023-03-04T11:24:47;96045.38;;;14.63;39.98
6218;BME280;3142;48.206;11.550;2023-03-04T11:27:21;96047.41;;;14.86;39.51
6218;BME280;3142;48.206;11.550;2023-03-04T11:29:52;96043.22;;;14.78;38.96
6218;BME280;3142;48.206;11.550;2023-03-04T11:32:23;96041.13;;;14.87;38.71
6218;BME280;3142;48.206;11.550;2023-03-04T11:34:54;96034.56;;;14.96;38.44
6218;BME280;3142;48.206;11.550;2023-03-04T11:37:28;96033.22;;;15.05;38.52
6218;BME280;3142;48.206;11.550;2023-03-04T11:39:58;96040.75;;;15.20;39.89
6218;BME280;3142;48.206;11.550;2023-03-04T11:42:32;96038.66;;;15.28;38.47
6218;BME280;3142;48.206;11.550;2023-03-04T11:45:02;96033.28;;;15.35;37.75
6218;BME280;3142;48.206;11.550;2023-03-04T11:47:40;96031.44;;;15.54;37.69
6218;BME280;3142;48.206;11.550;2023-03-04T11:50:24;96031.81;;;15.21;38.15
6218;BME280;3142;48.206;11.550;2023-03-04T11:53:04;96033.81;;;14.39;39.22
6218;BME280;3142;48.206;11.550;2023-03-04T11:55:42;96031.97;;;14.46;39.66
6218;BME280;3142;48.206;11.550;2023-03-04T11:58:22;96031.41;;;14.12;39.89
6218;BME280;3142;48.206;11.550;2023-03-04T12:00:56;96025.31;;;14.37;40.21
6218;BME280;3142;48.206;11.550;2023-03-04T12:03:41;96026.47;;;13.91;39.71
6218;BME280;3142;48.206;11.550;2023-03-04T12:06:13;96020.06;;;13.80;41.01
6218;BME280;3142;48.206;11.550;2023-03-04T12:08:53;96017.78;;;13.90;39.96
6218;BME280;3142;48.206;11.550;2023-03-04T12:11:29;96019.09;;;13.75;39.96
6218;BME280;3142;48.206;11.550;2023-03-04T12:14:22;96015.59;;;13.87;41.57
6218;BME280;3142;48.206;11.550;2023-03-04T12:23:00;96010.69;;;13.59;42.63
6218;BME280;3142;48.206;11.550;2023-03-04T12:25:41;95999.31;;;13.66;41.39
6218;BME280;3142;48.206;11.550;2023-03-04T12:28:25;95996.16;;;13.50;42.35
6218;BME280;3142;48.206;11.550;2023-03-04T12:31:15;96000.66;;;13.43;42.63
6218;BME280;3142;48.206;11.550;2023-03-04T12:33:58;95994.16;;;12.94;43.85
6218;BME280;3142;48.206;11.550;2023-03-04T12:36:33;96000.84;;;12.84;43.79
6218;BME280;3142;48.206;11.550;2023-03-04T12:39:14;95997.59;;;12.88;43.31
6218;BME280;3142;48.206;11.550;2023-03-04T12:41:55;95993.16;;;12.89;42.70
6218;BME280;3142;48.206;11.550;2023-03-04T12:44:28;95992.44;;;12.29;44.47
6218;BME280;3142;48.206;11.550;2023-03-04T12:47:08;95987.22;;;12.09;43.41
6218;BME280;3142;48.206;11.550;2023-03-04T12:49:49;95992.00;;;11.72;45.59
6218;BME280;3142;48.206;11.550;2023-03-04T12:52:30;95993.84;;;11.92;45.98
6218;BME280;3142;48.206;11.550;2023-03-04T12:55:07;95994.47;;;11.80;44.99
6218;BME280;3142;48.206;11.550;2023-03-04T12:57:37;95987.53;;;11.60;46.14
6218;BME280;3142;48.206;11.550;2023-03-04T13:00:17;95996.28;;;11.80;46.11
6218;BME280;3142;48.206;11.550;2023-03-04T13:02:54;95982.97;;;11.81;46.42
6218;BME280;3142;48.206;11.550;2023-03-04T13:05:55;95990.19;;;11.66;46.18
6218;BME280;3142;48.206;11.550;2023-03-04T13:08:32;95980.66;;;11.39;45.93
6218;BME280;3142;48.206;11.550;2023-03-04T13:11:02;95980.97;;;11.22;46.83
6218;BME280;3142;48.206;11.550;2023-03-04T13:14:01;95966.00;;;10.96;47.62
6218;BME280;3142;48.206;11.550;2023-03-04T13:16:30;95971.41;;;10.95;47.65
6218;BME280;3142;48.206;11.550;2023-03-04T13:18:57;95964.44;;;11.15;47.60
6218;BME280;3142;48.206;11.550;2023-03-04T13:21:25;95972.34;;;11.35;46.98
6218;BME280;3142;48.206;11.550;2023-03-04T13:23:52;95962.50;;;11.44;46.91
6218;BME280;3142;48.206;11.550;2023-03-04T13:26:27;95968.88;;;11.15;46.82
6218;BME280;3142;48.206;11.550;2023-03-04T13:29:10;95957.34;;;11.03;47.85
6218;BME280;3142;48.206;11.550;2023-03-04T13:31:57;95969.72;;;11.35;47.09
6218;BME280;3142;48.206;11.550;2023-03-04T13:34:46;95965.16;;;11.57;46.39